sensor_id;sensor_type;location;lat;lon;timestamp;P1;durP1;ratioP1;P2;durP2;ratioP2
12990;SDS011;6560;57.692;11.958;2022-12-07T00:01:18;11.23;;;7.47;;
12990;SDS011;6560;57.692;11.958;2022-12-07T00:03:46;11.60;;;8.93;;
12990;SDS011;6560;57.692;11.958;2022-12-07T00:06:14;17.20;;;8.73;;
12990;SDS011;6560;57.692;11.958;2022-12-07T00:08:41;12.30;;;7.47;;
12990;SDS011;6560;57.692;11.958;2022-12-07T00:11:14;12.97;;;8.53;;
12990;SDS011;6560;57.692;11.958;2022-12-07T00:13:41;12.70;;;8.03;;
12990;SDS011;6560;57.692;11.958;2022-12-07T00:16:08;15.33;;;7.90;;
12990;SDS011;6560;57.692;11.958;2022-12-07T00:18:37;12.60;;;7.90;;
12990;SDS011;6560;57.692;11.958;2022-12-07T00:21:08;10.77;;;6.73;;
12990;SDS011;6560;57.692;11.958;2022-12-07T00:23:35;10.83;;;7.00;;
12990;SDS011;6560;57.692;11.958;2022-12-07T00:26:05;15.37;;;8.47;;
12990;SDS011;6560;57.692;11.958;2022-12-07T00:28:32;13.27;;;6.93;;
12990;SDS011;6560;57.692;11.958;2022-12-07T00:31:02;9.27;;;7.13;;
12990;SDS011;6560;57.692;11.958;2022-12-07T00:33:28;11.77;;;7.43;;
12990;SDS011;6560;57.692;11.958;2022-12-07T00:35:57;15.00;;;7.00;;
12990;SDS011;6560;57.692;11.958;2022-12-07T00:38:23;14.53;;;8.40;;
12990;SDS011;6560;57.692;11.958;2022-12-07T00:40:59;9.73;;;7.57;;
12990;SDS011;6560;57.692;11.958;2022-12-07T00:43:27;13.63;;;7.70;;
12990;SDS011;6560;57.692;11.958;2022-12-07T00:45:53;12.87;;;6.73;;
12990;SDS011;6560;57.692;11.958;2022-12-07T00:48:25;11.23;;;8.10;;
12990;SDS011;6560;57.692;11.958;2022-12-07T00:50:51;10.40;;;7.30;;
12990;SDS011;6560;57.692;11.958;2022-12-07T00:53:17;13.83;;;6.97;;
12990;SDS011;6560;57.692;11.958;2022-12-07T00:55:43;10.03;;;6.80;;
12990;SDS011;6560;57.692;11.958;2022-12-07T00:58:09;13.33;;;7.57;;
12990;SDS011;6560;57.692;11.958;2022-12-07T01:00:35;13.80;;;7.60;;
12990;SDS011;6560;57.692;11.958;2022-12-07T01:03:03;12.87;;;7.50;;
12990;SDS011;6560;57.692;11.958;2022-12-07T01:05:29;11.13;;;7.47;;
12990;SDS011;6560;57.692;11.958;2022-12-07T01:07:54;13.80;;;6.93;;
12990;SDS011;6560;57.692;11.958;2022-12-07T01:10:20;10.60;;;6.47;;
12990;SDS011;6560;57.692;11.958;2022-12-07T01:12:45;9.77;;;7.53;;
12990;SDS011;6560;57.692;11.958;2022-12-07T01:15:11;11.73;;;7.03;;
12990;SDS011;6560;57.692;11.958;2022-12-07T01:17:37;13.13;;;6.60;;
12990;SDS011;6560;57.692;11.958;2022-12-07T01:20:02;8.77;;;6.30;;
12990;SDS011;6560;57.692;11.958;2022-12-07T01:22:28;12.93;;;6.13;;
12990;SDS011;6560;57.692;11.958;2022-12-07T01:24:54;9.63;;;5.50;;
12990;SDS011;6560;57.692;11.958;2022-12-07T01:27:20;12.23;;;6.40;;
12990;SDS011;6560;57.692;11.958;2022-12-07T01:29:46;11.47;;;5.57;;
12990;SDS011;6560;57.692;11.958;2022-12-07T01:32:12;8.77;;;5.67;;
12990;SDS011;6560;57.692;11.958;2022-12-07T01:34:37;9.37;;;6.13;;
12990;SDS011;6560;57.692;11.958;2022-12-07T01:37:03;9.83;;;6.53;;
12990;SDS011;6560;57.692;11.958;2022-12-07T01:39:29;11.40;;;5.83;;
12990;SDS011;6560;57.692;11.958;2022-12-07T01:41:54;12.13;;;6.47;;
12990;SDS011;6560;57.692;11.958;2022-12-07T01:44:24;11.13;;;7.20;;
12990;SDS011;6560;57.692;11.958;2022-12-07T01:47:03;12.40;;;6.33;;
12990;SDS011;6560;57.692;11.958;2022-12-07T01:52:04;11.90;;;5.77;;
12990;SDS011;6560;57.692;11.958;2022-12-07T01:54:38;11.43;;;6.73;;
12990;SDS011;6560;57.692;11.958;2022-12-07T01:57:04;10.97;;;5.23;;
12990;SDS011;6560;57.692;11.958;2022-12-07T01:59:32;9.60;;;6.30;;
12990;SDS011;6560;57.692;11.958;2022-12-07T02:01:58;9.13;;;4.70;;
12990;SDS011;6560;57.692;11.958;2022-12-07T02:04:27;10.87;;;6.17;;
12990;SDS011;6560;57.692;11.958;2022-12-07T02:06:53;14.07;;;6.20;;
12990;SDS011;6560;57.692;11.958;2022-12-07T02:09:20;11.93;;;6.83;;
12990;SDS011;6560;57.692;11.958;2022-12-07T02:11:45;9.60;;;5.30;;
12990;SDS011;6560;57.692;11.958;2022-12-07T02:14:11;9.60;;;5.43;;
12990;SDS011;6560;57.692;11.958;2022-12-07T02:24:54;14.10;;;5.80;;
12990;SDS011;6560;57.692;11.958;2022-12-07T02:27:56;8.83;;;5.33;;
12990;SDS011;6560;57.692;11.958;2022-12-07T02:30:24;10.10;;;5.07;;
12990;SDS011;6560;57.692;11.958;2022-12-07T02:33:14;12.63;;;6.57;;
12990;SDS011;6560;57.692;11.958;2022-12-07T02:36:36;15.43;;;6.27;;
12990;SDS011;6560;57.692;11.958;2022-12-07T02:38:59;8.30;;;5.17;;
12990;SDS011;6560;57.692;11.958;2022-12-07T02:41:40;8.10;;;5.10;;
12990;SDS011;6560;57.692;11.958;2022-12-07T02:44:13;9.57;;;6.00;;
12990;SDS011;6560;57.692;11.958;2022-12-07T02:46:44;7.50;;;4.63;;
12990;SDS011;6560;57.692;11.958;2022-12-07T02:49:16;8.20;;;5.33;;
12990;SDS011;6560;57.692;11.958;2022-12-07T02:51:43;10.23;;;5.13;;
12990;SDS011;6560;57.692;11.958;2022-12-07T02:54:16;8.33;;;5.03;;
12990;SDS011;6560;57.692;11.958;2022-12-07T02:59:16;10.23;;;5.53;;
12990;SDS011;6560;57.692;11.958;2022-12-07T03:12:44;9.87;;;4.50;;
12990;SDS011;6560;57.692;11.958;2022-12-07T03:15:31;7.90;;;4.53;;
12990;SDS011;6560;57.692;11.958;2022-12-07T03:18:05;7.37;;;4.30;;
12990;SDS011;6560;57.692;11.958;2022-12-07T03:20:35;7.33;;;4.20;;
12990;SDS011;6560;57.692;11.958;2022-12-07T03:23:04;6.90;;;4.37;;
12990;SDS011;6560;57.692;11.958;2022-12-07T03:25:35;8.87;;;3.80;;
12990;SDS011;6560;57.692;11.958;2022-12-07T03:28:07;7.03;;;4.83;;
12990;SDS011;6560;57.692;11.958;2022-12-07T03:30:46;8.57;;;4.50;;
12990;SDS011;6560;57.692;11.958;2022-12-07T03:33:24;7.33;;;4.30;;
12990;SDS011;6560;57.692;11.958;2022-12-07T03:36:14;8.83;;;4.77;;
12990;SDS011;6560;57.692;11.958;2022-12-07T03:38:51;6.63;;;3.90;;
12990;SDS011;6560;57.692;11.958;2022-12-07T03:41:24;6.97;;;4.43;;
12990;SDS011;6560;57.692;11.958;2022-12-07T03:43:53;6.77;;;4.30;;
12990;SDS011;6560;57.692;11.958;2022-12-07T03:46:27;9.87;;;4.13;;
12990;SDS011;6560;57.692;11.958;2022-12-07T03:54:29;7.97;;;3.97;;
12990;SDS011;6560;57.692;11.958;2022-12-07T03:56:57;9.57;;;4.47;;
12990;SDS011;6560;57.692;11.958;2022-12-07T03:59:23;8.67;;;4.63;;
12990;SDS011;6560;57.692;11.958;2022-12-07T04:01:57;8.07;;;4.23;;
12990;SDS011;6560;57.692;11.958;2022-12-07T04:04:27;4.67;;;3.63;;
12990;SDS011;6560;57.692;11.958;2022-12-07T04:06:53;6.37;;;4.80;;
12990;SDS011;6560;57.692;11.958;2022-12-07T04:09:19;12.27;;;4.53;;
12990;SDS011;6560;57.692;11.958;2022-12-07T04:11:45;8.73;;;4.20;;
12990;SDS011;6560;57.692;11.958;2022-12-07T04:14:10;8.00;;;3.73;;
12990;SDS011;6560;57.692;11.958;2022-12-07T04:16:45;7.37;;;4.13;;
12990;SDS011;6560;57.692;11.958;2022-12-07T04:19:12;6.47;;;3.60;;
12990;SDS011;6560;57.692;11.958;2022-12-07T04:21:38;6.63;;;3.60;;
12990;SDS011;6560;57.692;11.958;2022-12-07T04:24:04;6.57;;;4.23;;
12990;SDS011;6560;57.692;11.958;2022-12-07T04:26:30;5.50;;;3.83;;
12990;SDS011;6560;57.692;11.958;2022-12-07T04:28:56;6.07;;;3.70;;
12990;SDS011;6560;57.692;11.958;2022-12-07T04:31:21;5.50;;;3.43;;
12990;SDS011;6560;57.692;11.958;2022-12-07T04:33:47;4.43;;;3.20;;
12990;SDS011;6560;57.692;11.958;2022-12-07T04:36:13;6.33;;;3.20;;
12990;SDS011;6560;57.692;11.958;2022-12-07T04:38:38;6.57;;;3.40;;
12990;SDS011;6560;57.692;11.958;2022-12-07T04:41:05;5.70;;;2.93;;
12990;SDS011;6560;57.692;11.958;2022-12-07T04:43:34;8.57;;;3.13;;
12990;SDS011;6560;57.692;11.958;2022-12-07T04:46:00;7.07;;;2.90;;
12990;SDS011;6560;57.692;11.958;2022-12-07T04:48:26;5.20;;;3.27;;
12990;SDS011;6560;57.692;11.958;2022-12-07T04:50:51;5.60;;;3.10;;
12990;SDS011;6560;57.692;11.958;2022-12-07T04:53:17;4.83;;;2.67;;
12990;SDS011;6560;57.692;11.958;2022-12-07T04:55:43;2.50;;;2.10;;
12990;SDS011;6560;57.692;11.958;2022-12-07T04:58:09;4.60;;;1.73;;
12990;SDS011;6560;57.692;11.958;2022-12-07T05:00:35;3.60;;;1.83;;
12990;SDS011;6560;57.692;11.958;2022-12-07T05:03:01;3.90;;;1.60;;
12990;SDS011;6560;57.692;11.958;2022-12-07T05:05:26;6.73;;;1.80;;
12990;SDS011;6560;57.692;11.958;2022-12-07T05:07:52;4.23;;;1.17;;
12990;SDS011;6560;57.692;11.958;2022-12-07T05:10:17;1.87;;;0.90;;
12990;SDS011;6560;57.692;11.958;2022-12-07T05:12:43;4.73;;;1.40;;
12990;SDS011;6560;57.692;11.958;2022-12-07T05:15:08;1.93;;;1.20;;
12990;SDS011;6560;57.692;11.958;2022-12-07T05:17:34;3.07;;;1.60;;
12990;SDS011;6560;57.692;11.958;2022-12-07T05:20:00;6.67;;;1.70;;
12990;SDS011;6560;57.692;11.958;2022-12-07T05:22:25;1.60;;;1.20;;
12990;SDS011;6560;57.692;11.958;2022-12-07T05:24:53;5.20;;;1.70;;
12990;SDS011;6560;57.692;11.958;2022-12-07T05:27:19;4.43;;;1.70;;
12990;SDS011;6560;57.692;11.958;2022-12-07T05:29:45;3.63;;;1.30;;
12990;SDS011;6560;57.692;11.958;2022-12-07T05:32:10;5.03;;;1.33;;
12990;SDS011;6560;57.692;11.958;2022-12-07T05:34:36;4.13;;;1.70;;
12990;SDS011;6560;57.692;11.958;2022-12-07T05:37:02;3.97;;;1.60;;
12990;SDS011;6560;57.692;11.958;2022-12-07T05:39:27;4.60;;;1.97;;
12990;SDS011;6560;57.692;11.958;2022-12-07T05:41:53;4.33;;;1.60;;
12990;SDS011;6560;57.692;11.958;2022-12-07T05:44:37;5.03;;;1.70;;
12990;SDS011;6560;57.692;11.958;2022-12-07T05:47:03;5.40;;;1.93;;
12990;SDS011;6560;57.692;11.958;2022-12-07T05:49:29;4.77;;;2.40;;
12990;SDS011;6560;57.692;11.958;2022-12-07T05:51:54;2.87;;;2.17;;
12990;SDS011;6560;57.692;11.958;2022-12-07T05:54:20;5.00;;;2.20;;
12990;SDS011;6560;57.692;11.958;2022-12-07T05:56:45;5.77;;;2.77;;
12990;SDS011;6560;57.692;11.958;2022-12-07T05:59:11;2.87;;;2.13;;
12990;SDS011;6560;57.692;11.958;2022-12-07T06:01:56;4.40;;;2.70;;
12990;SDS011;6560;57.692;11.958;2022-12-07T06:04:23;5.20;;;2.90;;
12990;SDS011;6560;57.692;11.958;2022-12-07T06:06:50;6.33;;;2.50;;
12990;SDS011;6560;57.692;11.958;2022-12-07T06:09:16;6.23;;;3.20;;
12990;SDS011;6560;57.692;11.958;2022-12-07T06:11:43;7.23;;;2.87;;
12990;SDS011;6560;57.692;11.958;2022-12-07T06:14:27;4.53;;;2.50;;
12990;SDS011;6560;57.692;11.958;2022-12-07T06:16:52;7.53;;;3.00;;
12990;SDS011;6560;57.692;11.958;2022-12-07T06:19:18;6.47;;;3.20;;
12990;SDS011;6560;57.692;11.958;2022-12-07T06:21:44;5.73;;;2.97;;
12990;SDS011;6560;57.692;11.958;2022-12-07T06:24:13;9.67;;;3.73;;
12990;SDS011;6560;57.692;11.958;2022-12-07T06:26:40;5.43;;;2.60;;
12990;SDS011;6560;57.692;11.958;2022-12-07T06:29:06;7.63;;;3.40;;
12990;SDS011;6560;57.692;11.958;2022-12-07T06:31:31;6.73;;;3.10;;
12990;SDS011;6560;57.692;11.958;2022-12-07T06:34:01;5.47;;;2.97;;
12990;SDS011;6560;57.692;11.958;2022-12-07T06:36:28;6.03;;;2.73;;
12990;SDS011;6560;57.692;11.958;2022-12-07T06:38:54;4.93;;;2.80;;
12990;SDS011;6560;57.692;11.958;2022-12-07T06:41:20;8.53;;;3.00;;
12990;SDS011;6560;57.692;11.958;2022-12-07T06:43:46;3.67;;;2.30;;
12990;SDS011;6560;57.692;11.958;2022-12-07T06:46:12;5.20;;;2.47;;
12990;SDS011;6560;57.692;11.958;2022-12-07T06:48:38;6.03;;;2.43;;
12990;SDS011;6560;57.692;11.958;2022-12-07T06:51:03;5.77;;;2.40;;
12990;SDS011;6560;57.692;11.958;2022-12-07T06:53:29;4.33;;;2.37;;
12990;SDS011;6560;57.692;11.958;2022-12-07T06:55:55;10.03;;;2.30;;
12990;SDS011;6560;57.692;11.958;2022-12-07T06:58:20;3.03;;;1.93;;
12990;SDS011;6560;57.692;11.958;2022-12-07T07:00:47;3.90;;;2.00;;
12990;SDS011;6560;57.692;11.958;2022-12-07T07:03:13;3.67;;;1.73;;
12990;SDS011;6560;57.692;11.958;2022-12-07T07:05:39;2.07;;;1.60;;
12990;SDS011;6560;57.692;11.958;2022-12-07T07:08:04;2.90;;;1.73;;
12990;SDS011;6560;57.692;11.958;2022-12-07T07:10:30;5.37;;;1.63;;
12990;SDS011;6560;57.692;11.958;2022-12-07T07:12:55;3.40;;;1.83;;
12990;SDS011;6560;57.692;11.958;2022-12-07T07:15:21;3.37;;;1.70;;
12990;SDS011;6560;57.692;11.958;2022-12-07T07:17:46;2.73;;;1.70;;
12990;SDS011;6560;57.692;11.958;2022-12-07T07:20:12;2.83;;;1.70;;
12990;SDS011;6560;57.692;11.958;2022-12-07T07:22:39;3.90;;;1.80;;
12990;SDS011;6560;57.692;11.958;2022-12-07T07:25:04;7.50;;;2.47;;
12990;SDS011;6560;57.692;11.958;2022-12-07T07:27:30;2.33;;;1.93;;
12990;SDS011;6560;57.692;11.958;2022-12-07T07:29:56;2.57;;;1.73;;
12990;SDS011;6560;57.692;11.958;2022-12-07T07:32:21;3.67;;;2.00;;
12990;SDS011;6560;57.692;11.958;2022-12-07T07:34:47;2.27;;;1.77;;
12990;SDS011;6560;57.692;11.958;2022-12-07T07:37:13;4.93;;;2.60;;
12990;SDS011;6560;57.692;11.958;2022-12-07T07:39:39;5.50;;;2.57;;
12990;SDS011;6560;57.692;11.958;2022-12-07T07:42:04;2.57;;;1.77;;
12990;SDS011;6560;57.692;11.958;2022-12-07T07:44:32;5.83;;;2.73;;
12990;SDS011;6560;57.692;11.958;2022-12-07T07:46:58;4.97;;;2.40;;
12990;SDS011;6560;57.692;11.958;2022-12-07T07:49:24;3.73;;;2.10;;
12990;SDS011;6560;57.692;11.958;2022-12-07T07:51:50;2.93;;;2.07;;
12990;SDS011;6560;57.692;11.958;2022-12-07T07:54:15;2.63;;;2.10;;
12990;SDS011;6560;57.692;11.958;2022-12-07T07:56:41;4.30;;;2.00;;
12990;SDS011;6560;57.692;11.958;2022-12-07T07:59:06;3.53;;;1.93;;
12990;SDS011;6560;57.692;11.958;2022-12-07T08:01:33;4.93;;;2.43;;
12990;SDS011;6560;57.692;11.958;2022-12-07T08:03:59;4.83;;;2.63;;
12990;SDS011;6560;57.692;11.958;2022-12-07T08:06:24;5.33;;;2.20;;
12990;SDS011;6560;57.692;11.958;2022-12-07T08:08:50;3.27;;;2.40;;
12990;SDS011;6560;57.692;11.958;2022-12-07T08:11:15;4.07;;;2.40;;
12990;SDS011;6560;57.692;11.958;2022-12-07T08:13:41;2.40;;;1.90;;
12990;SDS011;6560;57.692;11.958;2022-12-07T08:16:08;3.50;;;2.47;;
12990;SDS011;6560;57.692;11.958;2022-12-07T08:18:38;8.20;;;2.40;;
12990;SDS011;6560;57.692;11.958;2022-12-07T08:21:05;3.23;;;1.97;;
12990;SDS011;6560;57.692;11.958;2022-12-07T08:23:32;3.23;;;1.73;;
12990;SDS011;6560;57.692;11.958;2022-12-07T08:26:02;3.17;;;1.90;;
12990;SDS011;6560;57.692;11.958;2022-12-07T08:28:29;6.30;;;1.93;;
12990;SDS011;6560;57.692;11.958;2022-12-07T08:31:11;4.70;;;1.80;;
12990;SDS011;6560;57.692;11.958;2022-12-07T08:33:39;3.83;;;1.60;;
12990;SDS011;6560;57.692;11.958;2022-12-07T08:36:12;1.80;;;1.70;;
12990;SDS011;6560;57.692;11.958;2022-12-07T08:38:38;2.47;;;1.87;;
12990;SDS011;6560;57.692;11.958;2022-12-07T08:41:05;2.63;;;1.50;;
12990;SDS011;6560;57.692;11.958;2022-12-07T08:43:32;2.93;;;1.83;;
12990;SDS011;6560;57.692;11.958;2022-12-07T08:46:09;2.33;;;1.93;;
12990;SDS011;6560;57.692;11.958;2022-12-07T08:48:46;6.30;;;1.67;;
12990;SDS011;6560;57.692;11.958;2022-12-07T08:51:13;2.00;;;1.77;;
12990;SDS011;6560;57.692;11.958;2022-12-07T08:53:38;3.67;;;1.73;;
12990;SDS011;6560;57.692;11.958;2022-12-07T08:56:05;2.63;;;1.80;;
12990;SDS011;6560;57.692;11.958;2022-12-07T08:58:32;3.17;;;2.13;;
12990;SDS011;6560;57.692;11.958;2022-12-07T09:00:59;3.13;;;1.60;;
12990;SDS011;6560;57.692;11.958;2022-12-07T09:03:24;2.97;;;2.10;;
12990;SDS011;6560;57.692;11.958;2022-12-07T09:05:50;2.13;;;1.67;;
12990;SDS011;6560;57.692;11.958;2022-12-07T09:08:17;2.93;;;1.50;;
12990;SDS011;6560;57.692;11.958;2022-12-07T09:10:42;2.87;;;1.63;;
12990;SDS011;6560;57.692;11.958;2022-12-07T09:13:08;6.03;;;2.57;;
12990;SDS011;6560;57.692;11.958;2022-12-07T09:15:34;3.87;;;1.80;;
12990;SDS011;6560;57.692;11.958;2022-12-07T09:17:59;2.17;;;1.90;;
12990;SDS011;6560;57.692;11.958;2022-12-07T09:20:24;3.33;;;2.03;;
12990;SDS011;6560;57.692;11.958;2022-12-07T09:22:50;3.17;;;1.40;;
12990;SDS011;6560;57.692;11.958;2022-12-07T09:25:16;3.57;;;2.10;;
12990;SDS011;6560;57.692;11.958;2022-12-07T09:27:41;3.20;;;2.00;;
12990;SDS011;6560;57.692;11.958;2022-12-07T09:30:07;2.87;;;2.00;;
12990;SDS011;6560;57.692;11.958;2022-12-07T09:32:33;4.93;;;1.50;;
12990;SDS011;6560;57.692;11.958;2022-12-07T09:34:58;4.00;;;1.77;;
12990;SDS011;6560;57.692;11.958;2022-12-07T09:37:30;3.43;;;1.70;;
12990;SDS011;6560;57.692;11.958;2022-12-07T09:40:00;2.80;;;1.60;;
12990;SDS011;6560;57.692;11.958;2022-12-07T09:42:29;2.80;;;1.30;;
12990;SDS011;6560;57.692;11.958;2022-12-07T09:44:59;7.33;;;2.00;;
12990;SDS011;6560;57.692;11.958;2022-12-07T09:47:26;3.27;;;2.40;;
12990;SDS011;6560;57.692;11.958;2022-12-07T09:49:53;3.93;;;1.80;;
12990;SDS011;6560;57.692;11.958;2022-12-07T09:52:27;4.07;;;2.10;;
12990;SDS011;6560;57.692;11.958;2022-12-07T09:54:54;5.23;;;2.20;;
12990;SDS011;6560;57.692;11.958;2022-12-07T09:57:27;4.93;;;1.90;;
12990;SDS011;6560;57.692;11.958;2022-12-07T09:59:59;3.93;;;2.03;;
12990;SDS011;6560;57.692;11.958;2022-12-07T10:04:58;6.27;;;2.53;;
12990;SDS011;6560;57.692;11.958;2022-12-07T10:07:30;7.07;;;3.10;;
12990;SDS011;6560;57.692;11.958;2022-12-07T10:09:56;5.70;;;1.70;;
12990;SDS011;6560;57.692;11.958;2022-12-07T10:12:21;3.50;;;1.60;;
12990;SDS011;6560;57.692;11.958;2022-12-07T10:14:54;6.57;;;2.27;;
12990;SDS011;6560;57.692;11.958;2022-12-07T10:17:26;2.70;;;2.00;;
12990;SDS011;6560;57.692;11.958;2022-12-07T10:25:34;4.93;;;2.27;;
12990;SDS011;6560;57.692;11.958;2022-12-07T10:30:32;2.33;;;1.50;;
12990;SDS011;6560;57.692;11.958;2022-12-07T10:32:59;4.13;;;1.93;;
12990;SDS011;6560;57.692;11.958;2022-12-07T10:35:29;8.33;;;1.93;;
12990;SDS011;6560;57.692;11.958;2022-12-07T10:37:56;6.50;;;2.20;;
12990;SDS011;6560;57.692;11.958;2022-12-07T10:43:01;3.47;;;1.63;;
12990;SDS011;6560;57.692;11.958;2022-12-07T10:45:27;3.80;;;1.93;;
12990;SDS011;6560;57.692;11.958;2022-12-07T10:50:47;6.23;;;2.07;;
12990;SDS011;6560;57.692;11.958;2022-12-07T10:53:30;3.63;;;2.13;;
12990;SDS011;6560;57.692;11.958;2022-12-07T10:56:09;6.80;;;2.00;;
12990;SDS011;6560;57.692;11.958;2022-12-07T11:23:56;4.73;;;1.97;;
12990;SDS011;6560;57.692;11.958;2022-12-07T11:34:48;4.33;;;1.70;;
12990;SDS011;6560;57.692;11.958;2022-12-07T11:37:27;3.10;;;1.40;;
12990;SDS011;6560;57.692;11.958;2022-12-07T11:40:00;7.13;;;1.80;;
12990;SDS011;6560;57.692;11.958;2022-12-07T11:42:37;3.00;;;2.03;;
12990;SDS011;6560;57.692;11.958;2022-12-07T11:45:24;3.60;;;1.47;;
12990;SDS011;6560;57.692;11.958;2022-12-07T11:53:06;3.33;;;1.10;;
12990;SDS011;6560;57.692;11.958;2022-12-07T11:55:56;2.77;;;1.40;;
12990;SDS011;6560;57.692;11.958;2022-12-07T11:58:48;4.03;;;1.77;;
12990;SDS011;6560;57.692;11.958;2022-12-07T12:06:32;24.13;;;4.17;;
12990;SDS011;6560;57.692;11.958;2022-12-07T12:14:48;6.10;;;2.43;;
12990;SDS011;6560;57.692;11.958;2022-12-07T12:20:35;6.80;;;1.97;;
12990;SDS011;6560;57.692;11.958;2022-12-07T12:23:07;2.63;;;1.90;;
12990;SDS011;6560;57.692;11.958;2022-12-07T12:33:50;15.40;;;3.20;;
12990;SDS011;6560;57.692;11.958;2022-12-07T12:36:19;5.37;;;1.37;;
12990;SDS011;6560;57.692;11.958;2022-12-07T12:44:01;3.83;;;1.57;;
12990;SDS011;6560;57.692;11.958;2022-12-07T12:51:57;3.10;;;1.60;;
12990;SDS011;6560;57.692;11.958;2022-12-07T12:54:27;4.73;;;1.40;;
12990;SDS011;6560;57.692;11.958;2022-12-07T12:59:24;2.30;;;1.50;;
12990;SDS011;6560;57.692;11.958;2022-12-07T13:01:53;3.37;;;2.00;;
12990;SDS011;6560;57.692;11.958;2022-12-07T13:04:40;4.50;;;1.73;;
12990;SDS011;6560;57.692;11.958;2022-12-07T13:12:58;2.40;;;1.97;;
12990;SDS011;6560;57.692;11.958;2022-12-07T13:15:34;4.57;;;1.87;;
12990;SDS011;6560;57.692;11.958;2022-12-07T13:20:46;6.27;;;1.73;;
12990;SDS011;6560;57.692;11.958;2022-12-07T13:26:20;4.70;;;1.90;;
12990;SDS011;6560;57.692;11.958;2022-12-07T13:28:49;4.33;;;2.30;;
12990;SDS011;6560;57.692;11.958;2022-12-07T13:34:01;3.80;;;1.90;;
12990;SDS011;6560;57.692;11.958;2022-12-07T13:36:49;2.83;;;1.60;;
12990;SDS011;6560;57.692;11.958;2022-12-07T13:39:20;2.70;;;1.50;;
12990;SDS011;6560;57.692;11.958;2022-12-07T13:41:58;2.50;;;1.63;;
12990;SDS011;6560;57.692;11.958;2022-12-07T13:44:25;3.40;;;1.63;;
12990;SDS011;6560;57.692;11.958;2022-12-07T13:49:55;1.03;;;0.93;;
12990;SDS011;6560;57.692;11.958;2022-12-07T13:52:23;2.23;;;1.33;;
12990;SDS011;6560;57.692;11.958;2022-12-07T13:57:31;2.43;;;1.33;;
12990;SDS011;6560;57.692;11.958;2022-12-07T14:00:00;2.53;;;1.53;;
12990;SDS011;6560;57.692;11.958;2022-12-07T14:02:28;8.77;;;1.53;;
12990;SDS011;6560;57.692;11.958;2022-12-07T14:07:47;9.03;;;1.83;;
12990;SDS011;6560;57.692;11.958;2022-12-07T14:10:36;4.27;;;1.70;;
12990;SDS011;6560;57.692;11.958;2022-12-07T14:13:21;4.77;;;1.70;;
12990;SDS011;6560;57.692;11.958;2022-12-07T14:16:00;11.63;;;2.07;;
12990;SDS011;6560;57.692;11.958;2022-12-07T14:18:28;4.27;;;2.13;;
12990;SDS011;6560;57.692;11.958;2022-12-07T14:23:36;6.00;;;3.20;;
12990;SDS011;6560;57.692;11.958;2022-12-07T14:26:05;4.73;;;2.33;;
12990;SDS011;6560;57.692;11.958;2022-12-07T14:28:35;4.80;;;2.00;;
12990;SDS011;6560;57.692;11.958;2022-12-07T14:31:02;2.93;;;2.00;;
12990;SDS011;6560;57.692;11.958;2022-12-07T14:33:33;3.10;;;1.60;;
12990;SDS011;6560;57.692;11.958;2022-12-07T14:35:59;3.70;;;2.23;;
12990;SDS011;6560;57.692;11.958;2022-12-07T14:38:25;1.77;;;1.40;;
12990;SDS011;6560;57.692;11.958;2022-12-07T14:40:51;2.33;;;1.50;;
12990;SDS011;6560;57.692;11.958;2022-12-07T14:43:18;4.73;;;1.77;;
12990;SDS011;6560;57.692;11.958;2022-12-07T14:45:45;3.97;;;1.90;;
12990;SDS011;6560;57.692;11.958;2022-12-07T14:48:11;3.00;;;2.00;;
12990;SDS011;6560;57.692;11.958;2022-12-07T14:50:40;4.73;;;2.10;;
12990;SDS011;6560;57.692;11.958;2022-12-07T14:53:12;3.20;;;1.73;;
12990;SDS011;6560;57.692;11.958;2022-12-07T14:55:40;5.33;;;2.10;;
12990;SDS011;6560;57.692;11.958;2022-12-07T14:58:06;4.70;;;2.27;;
12990;SDS011;6560;57.692;11.958;2022-12-07T15:00:43;5.80;;;2.07;;
12990;SDS011;6560;57.692;11.958;2022-12-07T15:03:09;7.73;;;2.77;;
12990;SDS011;6560;57.692;11.958;2022-12-07T15:05:35;5.60;;;2.40;;
12990;SDS011;6560;57.692;11.958;2022-12-07T15:08:02;4.07;;;1.97;;
12990;SDS011;6560;57.692;11.958;2022-12-07T15:10:29;5.20;;;2.37;;
12990;SDS011;6560;57.692;11.958;2022-12-07T15:12:57;9.07;;;2.47;;
12990;SDS011;6560;57.692;11.958;2022-12-07T15:15:43;3.90;;;2.20;;
12990;SDS011;6560;57.692;11.958;2022-12-07T15:18:09;6.17;;;2.40;;
12990;SDS011;6560;57.692;11.958;2022-12-07T15:20:34;7.73;;;2.80;;
12990;SDS011;6560;57.692;11.958;2022-12-07T15:23:00;6.17;;;2.40;;
12990;SDS011;6560;57.692;11.958;2022-12-07T15:25:26;3.77;;;2.23;;
12990;SDS011;6560;57.692;11.958;2022-12-07T15:27:51;5.83;;;3.10;;
12990;SDS011;6560;57.692;11.958;2022-12-07T15:30:17;6.90;;;4.27;;
12990;SDS011;6560;57.692;11.958;2022-12-07T15:32:42;6.60;;;3.63;;
12990;SDS011;6560;57.692;11.958;2022-12-07T15:35:09;4.77;;;2.73;;
12990;SDS011;6560;57.692;11.958;2022-12-07T15:37:34;6.43;;;3.10;;
12990;SDS011;6560;57.692;11.958;2022-12-07T15:40:02;7.60;;;3.30;;
12990;SDS011;6560;57.692;11.958;2022-12-07T15:42:28;5.97;;;2.77;;
12990;SDS011;6560;57.692;11.958;2022-12-07T15:44:53;5.50;;;2.27;;
12990;SDS011;6560;57.692;11.958;2022-12-07T15:47:29;6.03;;;3.30;;
12990;SDS011;6560;57.692;11.958;2022-12-07T15:49:57;7.40;;;3.73;;
12990;SDS011;6560;57.692;11.958;2022-12-07T15:52:23;3.50;;;3.00;;
12990;SDS011;6560;57.692;11.958;2022-12-07T15:54:49;5.20;;;2.90;;
12990;SDS011;6560;57.692;11.958;2022-12-07T15:57:14;7.10;;;2.53;;
12990;SDS011;6560;57.692;11.958;2022-12-07T15:59:40;4.17;;;2.73;;
12990;SDS011;6560;57.692;11.958;2022-12-07T16:02:07;5.40;;;3.13;;
12990;SDS011;6560;57.692;11.958;2022-12-07T16:04:34;8.23;;;3.50;;
12990;SDS011;6560;57.692;11.958;2022-12-07T16:07:01;5.10;;;3.40;;
12990;SDS011;6560;57.692;11.958;2022-12-07T16:09:27;8.83;;;3.93;;
12990;SDS011;6560;57.692;11.958;2022-12-07T16:11:52;6.57;;;3.90;;
12990;SDS011;6560;57.692;11.958;2022-12-07T16:14:18;7.60;;;4.10;;
12990;SDS011;6560;57.692;11.958;2022-12-07T16:16:43;6.47;;;4.27;;
12990;SDS011;6560;57.692;11.958;2022-12-07T16:19:09;5.73;;;4.10;;
12990;SDS011;6560;57.692;11.958;2022-12-07T16:21:36;9.90;;;4.10;;
12990;SDS011;6560;57.692;11.958;2022-12-07T16:24:02;8.13;;;4.23;;
12990;SDS011;6560;57.692;11.958;2022-12-07T16:26:28;8.37;;;4.87;;
12990;SDS011;6560;57.692;11.958;2022-12-07T16:28:54;8.07;;;4.30;;
12990;SDS011;6560;57.692;11.958;2022-12-07T16:31:23;6.97;;;4.70;;
12990;SDS011;6560;57.692;11.958;2022-12-07T16:33:52;7.90;;;4.17;;
12990;SDS011;6560;57.692;11.958;2022-12-07T16:36:19;8.13;;;4.77;;
12990;SDS011;6560;57.692;11.958;2022-12-07T16:38:47;8.73;;;4.23;;
12990;SDS011;6560;57.692;11.958;2022-12-07T16:41:12;21.67;;;5.23;;
12990;SDS011;6560;57.692;11.958;2022-12-07T16:43:38;5.23;;;4.53;;
12990;SDS011;6560;57.692;11.958;2022-12-07T16:46:04;6.37;;;4.17;;
12990;SDS011;6560;57.692;11.958;2022-12-07T16:48:31;9.73;;;4.83;;
12990;SDS011;6560;57.692;11.958;2022-12-07T16:50:56;11.33;;;6.23;;
12990;SDS011;6560;57.692;11.958;2022-12-07T16:53:23;15.23;;;7.73;;
12990;SDS011;6560;57.692;11.958;2022-12-07T16:55:49;11.87;;;7.57;;
12990;SDS011;6560;57.692;11.958;2022-12-07T16:58:16;8.30;;;6.07;;
12990;SDS011;6560;57.692;11.958;2022-12-07T17:00:42;8.37;;;5.57;;
12990;SDS011;6560;57.692;11.958;2022-12-07T17:03:09;8.33;;;5.07;;
12990;SDS011;6560;57.692;11.958;2022-12-07T17:05:41;5.80;;;4.37;;
12990;SDS011;6560;57.692;11.958;2022-12-07T17:08:09;8.53;;;4.53;;
12990;SDS011;6560;57.692;11.958;2022-12-07T17:10:36;6.33;;;4.50;;
12990;SDS011;6560;57.692;11.958;2022-12-07T17:13:04;9.53;;;6.87;;
12990;SDS011;6560;57.692;11.958;2022-12-07T17:16:09;11.03;;;4.97;;
12990;SDS011;6560;57.692;11.958;2022-12-07T17:18:35;8.97;;;4.73;;
12990;SDS011;6560;57.692;11.958;2022-12-07T17:21:05;6.73;;;4.33;;